sensor_id;sensor_type;location;lat;lon;timestamp;P1;durP1;ratioP1;P2;durP2;ratioP2
77775;SDS011;66965;43.328;6.668;2023-06-04T00:01:28;8.27;;;3.80;;
77775;SDS011;66965;43.328;6.668;2023-06-04T00:03:54;8.38;;;3.72;;
77775;SDS011;66965;43.328;6.668;2023-06-04T00:06:19;6.97;;;3.47;;
77775;SDS011;66965;43.328;6.668;2023-06-04T00:08:44;6.95;;;3.70;;
77775;SDS011;66965;43.328;6.668;2023-06-04T00:11:10;7.57;;;4.03;;
77775;SDS011;66965;43.328;6.668;2023-06-04T00:13:35;6.73;;;3.80;;
77775;SDS011;66965;43.328;6.668;2023-06-04T00:16:00;6.05;;;3.28;;
77775;SDS011;66965;43.328;6.668;2023-06-04T00:18:26;6.50;;;3.90;;
77775;SDS011;66965;43.328;6.668;2023-06-04T00:20:51;7.37;;;3.73;;
77775;SDS011;66965;43.328;6.668;2023-06-04T00:23:16;6.57;;;4.33;;
77775;SDS011;66965;43.328;6.668;2023-06-04T00:25:41;6.10;;;3.47;;
77775;SDS011;66965;43.328;6.668;2023-06-04T00:28:07;7.30;;;4.33;;
77775;SDS011;66965;43.328;6.668;2023-06-04T00:30:32;8.03;;;4.40;;
77775;SDS011;66965;43.328;6.668;2023-06-04T00:32:58;7.53;;;4.03;;
77775;SDS011;66965;43.328;6.668;2023-06-04T00:35:23;9.95;;;4.28;;
77775;SDS011;66965;43.328;6.668;2023-06-04T00:37:49;9.00;;;4.30;;
77775;SDS011;66965;43.328;6.668;2023-06-04T00:40:14;5.53;;;3.58;;
77775;SDS011;66965;43.328;6.668;2023-06-04T00:42:39;8.60;;;4.50;;
77775;SDS011;66965;43.328;6.668;2023-06-04T00:45:05;8.13;;;4.17;;
77775;SDS011;66965;43.328;6.668;2023-06-04T00:47:34;5.55;;;3.70;;
77775;SDS011;66965;43.328;6.668;2023-06-04T00:50:00;8.43;;;4.15;;
77775;SDS011;66965;43.328;6.668;2023-06-04T00:52:25;8.30;;;3.80;;
77775;SDS011;66965;43.328;6.668;2023-06-04T00:54:51;7.55;;;3.53;;
77775;SDS011;66965;43.328;6.668;2023-06-04T00:57:17;5.70;;;3.85;;
77775;SDS011;66965;43.328;6.668;2023-06-04T00:59:42;6.30;;;3.97;;
77775;SDS011;66965;43.328;6.668;2023-06-04T01:07:02;9.07;;;4.50;;
77775;SDS011;66965;43.328;6.668;2023-06-04T01:09:28;7.75;;;4.40;;
77775;SDS011;66965;43.328;6.668;2023-06-04T01:11:54;6.72;;;4.60;;
77775;SDS011;66965;43.328;6.668;2023-06-04T01:14:22;6.13;;;4.07;;
77775;SDS011;66965;43.328;6.668;2023-06-04T01:16:51;9.05;;;4.30;;
77775;SDS011;66965;43.328;6.668;2023-06-04T01:21:55;7.75;;;4.53;;
77775;SDS011;66965;43.328;6.668;2023-06-04T01:24:26;10.63;;;4.88;;
77775;SDS011;66965;43.328;6.668;2023-06-04T01:26:52;7.90;;;3.92;;
77775;SDS011;66965;43.328;6.668;2023-06-04T01:29:20;6.28;;;3.92;;
77775;SDS011;66965;43.328;6.668;2023-06-04T01:31:46;6.38;;;4.45;;
77775;SDS011;66965;43.328;6.668;2023-06-04T01:34:11;6.90;;;4.10;;
77775;SDS011;66965;43.328;6.668;2023-06-04T01:36:37;8.47;;;4.60;;
77775;SDS011;66965;43.328;6.668;2023-06-04T01:39:02;7.57;;;3.93;;
77775;SDS011;66965;43.328;6.668;2023-06-04T01:41:27;6.27;;;4.10;;
77775;SDS011;66965;43.328;6.668;2023-06-04T01:43:52;8.13;;;4.33;;
77775;SDS011;66965;43.328;6.668;2023-06-04T01:46:18;6.93;;;4.23;;
77775;SDS011;66965;43.328;6.668;2023-06-04T01:48:43;6.83;;;4.73;;
77775;SDS011;66965;43.328;6.668;2023-06-04T01:51:08;7.53;;;5.53;;
77775;SDS011;66965;43.328;6.668;2023-06-04T01:53:34;7.00;;;4.47;;
77775;SDS011;66965;43.328;6.668;2023-06-04T01:56:00;6.70;;;4.05;;
77775;SDS011;66965;43.328;6.668;2023-06-04T01:58:26;8.52;;;4.53;;
77775;SDS011;66965;43.328;6.668;2023-06-04T02:00:55;7.32;;;4.18;;
77775;SDS011;66965;43.328;6.668;2023-06-04T02:03:21;5.88;;;4.30;;
77775;SDS011;66965;43.328;6.668;2023-06-04T02:05:47;6.65;;;4.10;;
77775;SDS011;66965;43.328;6.668;2023-06-04T02:08:14;9.38;;;4.53;;
77775;SDS011;66965;43.328;6.668;2023-06-04T02:10:44;7.45;;;4.07;;
77775;SDS011;66965;43.328;6.668;2023-06-04T02:13:09;7.97;;;5.22;;
77775;SDS011;66965;43.328;6.668;2023-06-04T02:15:34;8.27;;;5.60;;
77775;SDS011;66965;43.328;6.668;2023-06-04T02:18:10;8.75;;;4.28;;
77775;SDS011;66965;43.328;6.668;2023-06-04T02:20:38;7.55;;;4.68;;
77775;SDS011;66965;43.328;6.668;2023-06-04T02:23:03;7.10;;;4.30;;
77775;SDS011;66965;43.328;6.668;2023-06-04T02:25:28;9.93;;;4.90;;
77775;SDS011;66965;43.328;6.668;2023-06-04T02:27:54;8.65;;;5.10;;
77775;SDS011;66965;43.328;6.668;2023-06-04T02:30:19;7.03;;;4.47;;
77775;SDS011;66965;43.328;6.668;2023-06-04T02:32:44;8.77;;;4.80;;
77775;SDS011;66965;43.328;6.668;2023-06-04T02:35:10;7.73;;;4.87;;
77775;SDS011;66965;43.328;6.668;2023-06-04T02:37:35;7.95;;;5.00;;
77775;SDS011;66965;43.328;6.668;2023-06-04T02:40:00;6.82;;;4.53;;
77775;SDS011;66965;43.328;6.668;2023-06-04T02:42:26;7.17;;;4.40;;
77775;SDS011;66965;43.328;6.668;2023-06-04T02:44:51;7.53;;;4.63;;
77775;SDS011;66965;43.328;6.668;2023-06-04T02:47:16;6.77;;;4.87;;
77775;SDS011;66965;43.328;6.668;2023-06-04T02:49:44;6.68;;;4.63;;
77775;SDS011;66965;43.328;6.668;2023-06-04T02:52:10;11.82;;;4.43;;
77775;SDS011;66965;43.328;6.668;2023-06-04T02:54:35;9.37;;;4.40;;
77775;SDS011;66965;43.328;6.668;2023-06-04T02:57:01;6.63;;;3.90;;
77775;SDS011;66965;43.328;6.668;2023-06-04T02:59:26;6.57;;;3.93;;
77775;SDS011;66965;43.328;6.668;2023-06-04T03:01:51;6.60;;;4.63;;
77775;SDS011;66965;43.328;6.668;2023-06-04T03:04:16;6.83;;;4.70;;
77775;SDS011;66965;43.328;6.668;2023-06-04T03:06:42;6.97;;;4.50;;
77775;SDS011;66965;43.328;6.668;2023-06-04T03:09:11;8.02;;;4.05;;
77775;SDS011;66965;43.328;6.668;2023-06-04T03:11:36;8.77;;;4.50;;
77775;SDS011;66965;43.328;6.668;2023-06-04T03:14:02;9.05;;;4.43;;
77775;SDS011;66965;43.328;6.668;2023-06-04T03:16:27;8.07;;;4.50;;
77775;SDS011;66965;43.328;6.668;2023-06-04T03:18:52;8.90;;;4.10;;
77775;SDS011;66965;43.328;6.668;2023-06-04T03:21:18;7.93;;;4.18;;
77775;SDS011;66965;43.328;6.668;2023-06-04T03:23:43;6.20;;;4.10;;
77775;SDS011;66965;43.328;6.668;2023-06-04T03:26:08;9.40;;;4.30;;
77775;SDS011;66965;43.328;6.668;2023-06-04T03:28:34;6.53;;;4.50;;
77775;SDS011;66965;43.328;6.668;2023-06-04T03:30:59;10.47;;;4.60;;
77775;SDS011;66965;43.328;6.668;2023-06-04T03:33:25;8.70;;;4.50;;
77775;SDS011;66965;43.328;6.668;2023-06-04T03:35:50;6.50;;;4.20;;
77775;SDS011;66965;43.328;6.668;2023-06-04T03:38:15;6.35;;;4.35;;
77775;SDS011;66965;43.328;6.668;2023-06-04T03:40:41;6.38;;;4.45;;
77775;SDS011;66965;43.328;6.668;2023-06-04T03:43:06;6.90;;;4.77;;
77775;SDS011;66965;43.328;6.668;2023-06-04T03:45:32;8.02;;;4.38;;
77775;SDS011;66965;43.328;6.668;2023-06-04T03:47:57;8.75;;;4.50;;
77775;SDS011;66965;43.328;6.668;2023-06-04T03:50:23;7.23;;;4.53;;
77775;SDS011;66965;43.328;6.668;2023-06-04T03:52:48;6.70;;;4.50;;
77775;SDS011;66965;43.328;6.668;2023-06-04T03:55:13;8.50;;;4.57;;
77775;SDS011;66965;43.328;6.668;2023-06-04T03:57:38;7.60;;;4.57;;
77775;SDS011;66965;43.328;6.668;2023-06-04T04:00:07;7.47;;;4.57;;
77775;SDS011;66965;43.328;6.668;2023-06-04T04:02:33;5.85;;;4.07;;
77775;SDS011;66965;43.328;6.668;2023-06-04T04:04:59;7.20;;;4.13;;
77775;SDS011;66965;43.328;6.668;2023-06-04T04:07:25;7.43;;;4.38;;
77775;SDS011;66965;43.328;6.668;2023-06-04T04:09:51;8.40;;;4.40;;
77775;SDS011;66965;43.328;6.668;2023-06-04T04:12:16;7.28;;;4.35;;
77775;SDS011;66965;43.328;6.668;2023-06-04T04:14:42;7.03;;;4.70;;
77775;SDS011;66965;43.328;6.668;2023-06-04T04:17:07;7.63;;;4.13;;
77775;SDS011;66965;43.328;6.668;2023-06-04T04:19:32;7.57;;;4.77;;
77775;SDS011;66965;43.328;6.668;2023-06-04T04:21:58;7.45;;;4.28;;
77775;SDS011;66965;43.328;6.668;2023-06-04T04:26:48;9.60;;;4.77;;
77775;SDS011;66965;43.328;6.668;2023-06-04T04:29:17;7.35;;;4.20;;
77775;SDS011;66965;43.328;6.668;2023-06-04T04:31:43;9.00;;;5.15;;
77775;SDS011;66965;43.328;6.668;2023-06-04T04:34:08;7.43;;;4.40;;
77775;SDS011;66965;43.328;6.668;2023-06-04T04:36:34;6.70;;;4.37;;
77775;SDS011;66965;43.328;6.668;2023-06-04T04:39:01;9.40;;;4.47;;
77775;SDS011;66965;43.328;6.668;2023-06-04T04:41:26;7.40;;;4.13;;
77775;SDS011;66965;43.328;6.668;2023-06-04T04:43:52;8.30;;;4.20;;
77775;SDS011;66965;43.328;6.668;2023-06-04T04:46:18;7.57;;;5.13;;
77775;SDS011;66965;43.328;6.668;2023-06-04T04:48:43;7.50;;;4.27;;
77775;SDS011;66965;43.328;6.668;2023-06-04T04:51:08;8.07;;;4.23;;
77775;SDS011;66965;43.328;6.668;2023-06-04T04:53:34;6.83;;;3.80;;
77775;SDS011;66965;43.328;6.668;2023-06-04T04:55:59;8.25;;;4.78;;
77775;SDS011;66965;43.328;6.668;2023-06-04T04:58:25;7.43;;;4.30;;
77775;SDS011;66965;43.328;6.668;2023-06-04T05:00:50;5.47;;;3.13;;
77775;SDS011;66965;43.328;6.668;2023-06-04T05:03:15;8.67;;;4.47;;
77775;SDS011;66965;43.328;6.668;2023-06-04T05:05:41;6.57;;;4.50;;
77775;SDS011;66965;43.328;6.668;2023-06-04T05:08:06;10.40;;;4.10;;
77775;SDS011;66965;43.328;6.668;2023-06-04T05:10:31;6.57;;;3.80;;
77775;SDS011;66965;43.328;6.668;2023-06-04T05:12:57;5.57;;;3.60;;
77775;SDS011;66965;43.328;6.668;2023-06-04T05:17:49;8.02;;;3.58;;
77775;SDS011;66965;43.328;6.668;2023-06-04T05:20:17;5.40;;;3.65;;
77775;SDS011;66965;43.328;6.668;2023-06-04T05:22:42;6.28;;;3.72;;
77775;SDS011;66965;43.328;6.668;2023-06-04T05:25:11;7.35;;;4.43;;
77775;SDS011;66965;43.328;6.668;2023-06-04T05:27:36;7.85;;;3.42;;
77775;SDS011;66965;43.328;6.668;2023-06-04T05:30:02;5.93;;;4.03;;
77775;SDS011;66965;43.328;6.668;2023-06-04T05:32:27;5.90;;;3.83;;
77775;SDS011;66965;43.328;6.668;2023-06-04T05:34:56;7.55;;;4.25;;
77775;SDS011;66965;43.328;6.668;2023-06-04T05:37:25;7.93;;;4.20;;
77775;SDS011;66965;43.328;6.668;2023-06-04T05:39:55;8.60;;;4.13;;
77775;SDS011;66965;43.328;6.668;2023-06-04T05:42:21;6.70;;;3.38;;
77775;SDS011;66965;43.328;6.668;2023-06-04T05:44:46;8.93;;;3.47;;
77775;SDS011;66965;43.328;6.668;2023-06-04T05:47:11;7.07;;;3.70;;
77775;SDS011;66965;43.328;6.668;2023-06-04T05:49:37;6.67;;;4.27;;
77775;SDS011;66965;43.328;6.668;2023-06-04T05:52:02;5.10;;;3.30;;
77775;SDS011;66965;43.328;6.668;2023-06-04T05:54:28;5.88;;;3.63;;
77775;SDS011;66965;43.328;6.668;2023-06-04T05:56:53;6.97;;;3.97;;
77775;SDS011;66965;43.328;6.668;2023-06-04T05:59:19;7.07;;;3.33;;
77775;SDS011;66965;43.328;6.668;2023-06-04T06:01:44;6.25;;;3.33;;
77775;SDS011;66965;43.328;6.668;2023-06-04T06:04:09;5.47;;;3.30;;
77775;SDS011;66965;43.328;6.668;2023-06-04T06:06:35;5.30;;;3.13;;
77775;SDS011;66965;43.328;6.668;2023-06-04T06:09:00;7.27;;;4.03;;
77775;SDS011;66965;43.328;6.668;2023-06-04T06:11:26;7.00;;;3.90;;
77775;SDS011;66965;43.328;6.668;2023-06-04T06:13:52;6.65;;;3.20;;
77775;SDS011;66965;43.328;6.668;2023-06-04T06:16:17;5.33;;;3.20;;
77775;SDS011;66965;43.328;6.668;2023-06-04T06:21:08;6.43;;;3.42;;
77775;SDS011;66965;43.328;6.668;2023-06-04T06:23:33;6.47;;;3.57;;
77775;SDS011;66965;43.328;6.668;2023-06-04T06:25:59;6.20;;;3.40;;
77775;SDS011;66965;43.328;6.668;2023-06-04T06:28:26;6.22;;;3.40;;
77775;SDS011;66965;43.328;6.668;2023-06-04T06:30:52;6.23;;;3.70;;
77775;SDS011;66965;43.328;6.668;2023-06-04T06:33:17;6.87;;;3.80;;
77775;SDS011;66965;43.328;6.668;2023-06-04T06:35:46;5.82;;;3.83;;
77775;SDS011;66965;43.328;6.668;2023-06-04T06:38:12;5.40;;;3.65;;
77775;SDS011;66965;43.328;6.668;2023-06-04T06:40:37;8.73;;;4.22;;
77775;SDS011;66965;43.328;6.668;2023-06-04T06:43:03;9.60;;;4.60;;
77775;SDS011;66965;43.328;6.668;2023-06-04T06:45:28;6.63;;;4.43;;
77775;SDS011;66965;43.328;6.668;2023-06-04T06:47:53;5.90;;;3.70;;
77775;SDS011;66965;43.328;6.668;2023-06-04T06:52:43;6.47;;;3.97;;
77775;SDS011;66965;43.328;6.668;2023-06-04T06:55:09;6.07;;;3.67;;
77775;SDS011;66965;43.328;6.668;2023-06-04T06:57:34;6.37;;;3.40;;
77775;SDS011;66965;43.328;6.668;2023-06-04T07:00:00;6.70;;;4.00;;
77775;SDS011;66965;43.328;6.668;2023-06-04T07:02:25;6.57;;;3.63;;
77775;SDS011;66965;43.328;6.668;2023-06-04T07:04:50;5.27;;;3.53;;
77775;SDS011;66965;43.328;6.668;2023-06-04T07:07:16;8.20;;;3.70;;
77775;SDS011;66965;43.328;6.668;2023-06-04T07:09:41;6.65;;;3.53;;
77775;SDS011;66965;43.328;6.668;2023-06-04T07:12:06;6.23;;;3.30;;
77775;SDS011;66965;43.328;6.668;2023-06-04T07:14:32;10.93;;;3.43;;
77775;SDS011;66965;43.328;6.668;2023-06-04T07:16:57;5.93;;;4.17;;
77775;SDS011;66965;43.328;6.668;2023-06-04T07:19:22;5.97;;;3.63;;
77775;SDS011;66965;43.328;6.668;2023-06-04T07:21:48;6.57;;;3.27;;
77775;SDS011;66965;43.328;6.668;2023-06-04T07:24:13;6.57;;;4.03;;
77775;SDS011;66965;43.328;6.668;2023-06-04T07:26:38;9.17;;;4.03;;
77775;SDS011;66965;43.328;6.668;2023-06-04T07:29:03;6.67;;;3.87;;
77775;SDS011;66965;43.328;6.668;2023-06-04T07:33:54;5.67;;;3.90;;
77775;SDS011;66965;43.328;6.668;2023-06-04T07:36:20;6.53;;;3.83;;
77775;SDS011;66965;43.328;6.668;2023-06-04T07:38:45;7.57;;;3.50;;
77775;SDS011;66965;43.328;6.668;2023-06-04T07:41:11;7.63;;;4.20;;
77775;SDS011;66965;43.328;6.668;2023-06-04T07:43:36;8.63;;;3.57;;
77775;SDS011;66965;43.328;6.668;2023-06-04T07:46:02;7.65;;;3.90;;
77775;SDS011;66965;43.328;6.668;2023-06-04T07:48:28;6.88;;;3.80;;
77775;SDS011;66965;43.328;6.668;2023-06-04T07:50:59;6.95;;;3.92;;
77775;SDS011;66965;43.328;6.668;2023-06-04T07:53:24;7.13;;;3.75;;
77775;SDS011;66965;43.328;6.668;2023-06-04T07:58:16;9.73;;;4.78;;
77775;SDS011;66965;43.328;6.668;2023-06-04T08:00:41;6.53;;;3.50;;
77775;SDS011;66965;43.328;6.668;2023-06-04T08:03:06;7.53;;;3.70;;
77775;SDS011;66965;43.328;6.668;2023-06-04T08:05:31;6.10;;;3.20;;
77775;SDS011;66965;43.328;6.668;2023-06-04T08:10:22;8.98;;;3.63;;
77775;SDS011;66965;43.328;6.668;2023-06-04T08:12:47;8.23;;;3.87;;
77775;SDS011;66965;43.328;6.668;2023-06-04T08:17:38;5.68;;;3.85;;
77775;SDS011;66965;43.328;6.668;2023-06-04T08:20:03;6.33;;;3.60;;
77775;SDS011;66965;43.328;6.668;2023-06-04T08:22:31;5.70;;;3.35;;
77775;SDS011;66965;43.328;6.668;2023-06-04T08:24:56;5.78;;;3.75;;
77775;SDS011;66965;43.328;6.668;2023-06-04T08:29:47;10.03;;;4.13;;
77775;SDS011;66965;43.328;6.668;2023-06-04T08:34:38;7.10;;;3.77;;
77775;SDS011;66965;43.328;6.668;2023-06-04T08:37:03;7.03;;;3.57;;
77775;SDS011;66965;43.328;6.668;2023-06-04T08:41:59;6.80;;;3.50;;
77775;SDS011;66965;43.328;6.668;2023-06-04T08:44:26;7.18;;;3.83;;
77775;SDS011;66965;43.328;6.668;2023-06-04T08:46:52;5.32;;;3.38;;
77775;SDS011;66965;43.328;6.668;2023-06-04T08:49:18;7.85;;;3.50;;
77775;SDS011;66965;43.328;6.668;2023-06-04T08:51:46;8.43;;;3.30;;
77775;SDS011;66965;43.328;6.668;2023-06-04T08:56:37;8.50;;;3.65;;
77775;SDS011;66965;43.328;6.668;2023-06-04T08:59:03;6.67;;;3.57;;
77775;SDS011;66965;43.328;6.668;2023-06-04T09:01:29;7.97;;;3.75;;
77775;SDS011;66965;43.328;6.668;2023-06-04T09:03:55;8.38;;;3.22;;
77775;SDS011;66965;43.328;6.668;2023-06-04T09:06:22;8.25;;;3.30;;
77775;SDS011;66965;43.328;6.668;2023-06-04T09:08:48;8.52;;;3.35;;
77775;SDS011;66965;43.328;6.668;2023-06-04T09:11:13;6.57;;;3.30;;
77775;SDS011;66965;43.328;6.668;2023-06-04T09:16:04;8.15;;;3.78;;
77775;SDS011;66965;43.328;6.668;2023-06-04T09:18:30;5.95;;;3.67;;
77775;SDS011;66965;43.328;6.668;2023-06-04T09:23:21;8.48;;;3.92;;
77775;SDS011;66965;43.328;6.668;2023-06-04T09:25:47;8.32;;;3.72;;
77775;SDS011;66965;43.328;6.668;2023-06-04T09:30:37;8.20;;;4.03;;
77775;SDS011;66965;43.328;6.668;2023-06-04T09:35:28;7.20;;;3.35;;
77775;SDS011;66965;43.328;6.668;2023-06-04T09:37:54;7.73;;;3.43;;
77775;SDS011;66965;43.328;6.668;2023-06-04T09:40:20;6.32;;;3.15;;
77775;SDS011;66965;43.328;6.668;2023-06-04T09:45:11;5.57;;;2.57;;
77775;SDS011;66965;43.328;6.668;2023-06-04T09:50:02;6.72;;;2.58;;
77775;SDS011;66965;43.328;6.668;2023-06-04T09:52:34;9.75;;;3.13;;
77775;SDS011;66965;43.328;6.668;2023-06-04T09:57:25;8.07;;;3.13;;
77775;SDS011;66965;43.328;6.668;2023-06-04T09:59:52;8.43;;;3.17;;
77775;SDS011;66965;43.328;6.668;2023-06-04T10:04:44;6.70;;;3.03;;
77775;SDS011;66965;43.328;6.668;2023-06-04T10:07:11;6.18;;;2.90;;
77775;SDS011;66965;43.328;6.668;2023-06-04T10:12:07;5.45;;;2.65;;
77775;SDS011;66965;43.328;6.668;2023-06-04T10:16:58;5.03;;;2.72;;
77775;SDS011;66965;43.328;6.668;2023-06-04T10:21:48;7.30;;;2.53;;
77775;SDS011;66965;43.328;6.668;2023-06-04T10:26:39;6.75;;;2.47;;
77775;SDS011;66965;43.328;6.668;2023-06-04T10:31:29;7.93;;;2.88;;
77775;SDS011;66965;43.328;6.668;2023-06-04T10:33:56;8.52;;;3.05;;
77775;SDS011;66965;43.328;6.668;2023-06-04T10:36:22;9.07;;;2.63;;
77775;SDS011;66965;43.328;6.668;2023-06-04T10:38:54;5.93;;;2.97;;
77775;SDS011;66965;43.328;6.668;2023-06-04T10:41:20;8.95;;;3.00;;
77775;SDS011;66965;43.328;6.668;2023-06-04T10:43:49;7.03;;;2.90;;
77775;SDS011;66965;43.328;6.668;2023-06-04T10:46:15;7.47;;;3.30;;
77775;SDS011;66965;43.328;6.668;2023-06-04T10:51:13;6.65;;;2.95;;
77775;SDS011;66965;43.328;6.668;2023-06-04T10:53:38;5.95;;;2.60;;
77775;SDS011;66965;43.328;6.668;2023-06-04T10:56:03;6.73;;;2.90;;
77775;SDS011;66965;43.328;6.668;2023-06-04T10:58:32;5.53;;;3.17;;
77775;SDS011;66965;43.328;6.668;2023-06-04T11:00:58;8.48;;;3.03;;
77775;SDS011;66965;43.328;6.668;2023-06-04T11:03:23;5.67;;;3.43;;
77775;SDS011;66965;43.328;6.668;2023-06-04T11:05:48;5.97;;;2.93;;
77775;SDS011;66965;43.328;6.668;2023-06-04T11:08:25;6.60;;;3.10;;
77775;SDS011;66965;43.328;6.668;2023-06-04T11:10:51;7.65;;;3.00;;
77775;SDS011;66965;43.328;6.668;2023-06-04T11:13:22;6.00;;;3.10;;
77775;SDS011;66965;43.328;6.668;2023-06-04T11:15:47;5.82;;;2.90;;
77775;SDS011;66965;43.328;6.668;2023-06-04T11:18:17;6.05;;;3.30;;
77775;SDS011;66965;43.328;6.668;2023-06-04T11:20:43;5.80;;;3.33;;
77775;SDS011;66965;43.328;6.668;2023-06-04T11:23:11;5.70;;;3.03;;
77775;SDS011;66965;43.328;6.668;2023-06-04T11:25:36;6.47;;;3.35;;
77775;SDS011;66965;43.328;6.668;2023-06-04T11:28:01;6.10;;;3.13;;
77775;SDS011;66965;43.328;6.668;2023-06-04T11:33:04;7.50;;;3.47;;
77775;SDS011;66965;43.328;6.668;2023-06-04T11:35:30;6.05;;;2.60;;
77775;SDS011;66965;43.328;6.668;2023-06-04T11:37:56;5.60;;;2.88;;
77775;SDS011;66965;43.328;6.668;2023-06-04T11:40:21;5.13;;;2.85;;
77775;SDS011;66965;43.328;6.668;2023-06-04T11:45:13;6.25;;;3.25;;
77775;SDS011;66965;43.328;6.668;2023-06-04T11:47:39;6.45;;;3.28;;
77775;SDS011;66965;43.328;6.668;2023-06-04T11:52:30;5.83;;;3.40;;
77775;SDS011;66965;43.328;6.668;2023-06-04T11:54:56;5.85;;;2.95;;
77775;SDS011;66965;43.328;6.668;2023-06-04T11:59:47;7.07;;;3.20;;
77775;SDS011;66965;43.328;6.668;2023-06-04T12:02:12;5.67;;;3.10;;
77775;SDS011;66965;43.328;6.668;2023-06-04T12:04:37;7.47;;;2.77;;
77775;SDS011;66965;43.328;6.668;2023-06-04T12:07:03;5.38;;;3.30;;
77775;SDS011;66965;43.328;6.668;2023-06-04T12:09:31;6.03;;;3.10;;
77775;SDS011;66965;43.328;6.668;2023-06-04T12:12:02;4.95;;;3.10;;
77775;SDS011;66965;43.328;6.668;2023-06-04T12:14:28;5.40;;;2.80;;
77775;SDS011;66965;43.328;6.668;2023-06-04T12:19:18;4.78;;;2.72;;
77775;SDS011;66965;43.328;6.668;2023-06-04T12:24:09;5.57;;;2.83;;
77775;SDS011;66965;43.328;6.668;2023-06-04T12:26:35;5.63;;;2.58;;
77775;SDS011;66965;43.328;6.668;2023-06-04T12:29:12;7.10;;;3.15;;
77775;SDS011;66965;43.328;6.668;2023-06-04T12:31:38;5.25;;;2.40;;
77775;SDS011;66965;43.328;6.668;2023-06-04T12:34:04;6.45;;;2.60;;
77775;SDS011;66965;43.328;6.668;2023-06-04T12:36:30;5.38;;;2.70;;
77775;SDS011;66965;43.328;6.668;2023-06-04T12:38:57;4.63;;;2.60;;
77775;SDS011;66965;43.328;6.668;2023-06-04T12:41:23;7.82;;;2.60;;
77775;SDS011;66965;43.328;6.668;2023-06-04T12:43:48;5.60;;;2.30;;
77775;SDS011;66965;43.328;6.668;2023-06-04T12:46:13;5.70;;;2.30;;
77775;SDS011;66965;43.328;6.668;2023-06-04T12:48:39;5.83;;;2.87;;
77775;SDS011;66965;43.328;6.668;2023-06-04T12:51:04;5.15;;;2.78;;
77775;SDS011;66965;43.328;6.668;2023-06-04T12:53:30;5.65;;;2.53;;
77775;SDS011;66965;43.328;6.668;2023-06-04T12:55:55;4.33;;;2.43;;
77775;SDS011;66965;43.328;6.668;2023-06-04T12:58:20;10.90;;;2.70;;
77775;SDS011;66965;43.328;6.668;2023-06-04T13:03:11;7.43;;;3.30;;
77775;SDS011;66965;43.328;6.668;2023-06-04T13:08:01;6.77;;;2.87;;
77775;SDS011;66965;43.328;6.668;2023-06-04T13:12:52;5.43;;;3.10;;
77775;SDS011;66965;43.328;6.668;2023-06-04T13:17:42;5.88;;;2.72;;
77775;SDS011;66965;43.328;6.668;2023-06-04T13:20:08;6.93;;;2.97;;
77775;SDS011;66965;43.328;6.668;2023-06-04T13:22:34;6.53;;;2.55;;
77775;SDS011;66965;43.328;6.668;2023-06-04T13:24:59;5.20;;;2.60;;
77775;SDS011;66965;43.328;6.668;2023-06-04T13:29:50;4.63;;;2.50;;
77775;SDS011;66965;43.328;6.668;2023-06-04T13:32:15;4.60;;;2.30;;
77775;SDS011;66965;43.328;6.668;2023-06-04T13:37:06;6.43;;;3.30;;
77775;SDS011;66965;43.328;6.668;2023-06-04T13:41:57;6.95;;;3.35;;
77775;SDS011;66965;43.328;6.668;2023-06-04T13:44:22;6.07;;;3.10;;
77775;SDS011;66965;43.328;6.668;2023-06-04T13:46:51;6.28;;;3.25;;
77775;SDS011;66965;43.328;6.668;2023-06-04T13:51:42;6.03;;;2.67;;
77775;SDS011;66965;43.328;6.668;2023-06-04T13:54:07;5.30;;;2.77;;
77775;SDS011;66965;43.328;6.668;2023-06-04T13:58:57;6.20;;;2.67;;
77775;SDS011;66965;43.328;6.668;2023-06-04T14:01:22;4.37;;;2.90;;
77775;SDS011;66965;43.328;6.668;2023-06-04T14:06:13;4.80;;;2.50;;
77775;SDS011;66965;43.328;6.668;2023-06-04T14:11:03;4.87;;;2.47;;
77775;SDS011;66965;43.328;6.668;2023-06-04T14:13:29;6.07;;;2.37;;
77775;SDS011;66965;43.328;6.668;2023-06-04T14:15:54;7.03;;;3.23;;
77775;SDS011;66965;43.328;6.668;2023-06-04T14:18:20;6.68;;;3.20;;
77775;SDS011;66965;43.328;6.668;2023-06-04T14:20:45;4.90;;;2.53;;
77775;SDS011;66965;43.328;6.668;2023-06-04T14:23:10;6.27;;;2.37;;
77775;SDS011;66965;43.328;6.668;2023-06-04T14:25:37;4.93;;;2.45;;
77775;SDS011;66965;43.328;6.668;2023-06-04T14:28:02;5.88;;;2.58;;
77775;SDS011;66965;43.328;6.668;2023-06-04T14:30:27;4.57;;;2.23;;
77775;SDS011;66965;43.328;6.668;2023-06-04T14:32:53;6.33;;;2.70;;
77775;SDS011;66965;43.328;6.668;2023-06-04T14:35:18;5.60;;;2.67;;
77775;SDS011;66965;43.328;6.668;2023-06-04T14:37:43;7.13;;;2.57;;
77775;SDS011;66965;43.328;6.668;2023-06-04T14:40:08;7.60;;;2.30;;
77775;SDS011;66965;43.328;6.668;2023-06-04T14:42:34;6.15;;;2.58;;
77775;SDS011;66965;43.328;6.668;2023-06-04T14:44:59;6.13;;;2.42;;
77775;SDS011;66965;43.328;6.668;2023-06-04T14:47:24;7.77;;;2.60;;
77775;SDS011;66965;43.328;6.668;2023-06-04T14:49:50;6.10;;;2.55;;
77775;SDS011;66965;43.328;6.668;2023-06-04T14:52:18;13.67;;;3.10;;
77775;SDS011;66965;43.328;6.668;2023-06-04T14:54:43;6.35;;;2.92;;
77775;SDS011;66965;43.328;6.668;2023-06-04T14:57:09;5.03;;;2.33;;
77775;SDS011;66965;43.328;6.668;2023-06-04T14:59:35;5.27;;;2.43;;
77775;SDS011;66965;43.328;6.668;2023-06-04T15:02:01;4.40;;;2.40;;
77775;SDS011;66965;43.328;6.668;2023-06-04T15:04:26;5.03;;;2.13;;
77775;SDS011;66965;43.328;6.668;2023-06-04T15:06:51;7.00;;;2.83;;
77775;SDS011;66965;43.328;6.668;2023-06-04T15:09:16;5.60;;;2.30;;
77775;SDS011;66965;43.328;6.668;2023-06-04T15:11:42;7.40;;;2.13;;
77775;SDS011;66965;43.328;6.668;2023-06-04T15:14:07;7.07;;;2.87;;
77775;SDS011;66965;43.328;6.668;2023-06-04T15:16:32;7.10;;;2.50;;
77775;SDS011;66965;43.328;6.668;2023-06-04T15:18:58;7.17;;;2.50;;
77775;SDS011;66965;43.328;6.668;2023-06-04T15:21:23;5.63;;;2.30;;
77775;SDS011;66965;43.328;6.668;2023-06-04T15:23:48;6.38;;;2.35;;
77775;SDS011;66965;43.328;6.668;2023-06-04T15:26:14;4.87;;;2.47;;
77775;SDS011;66965;43.328;6.668;2023-06-04T15:28:40;5.35;;;2.15;;
77775;SDS011;66965;43.328;6.668;2023-06-04T15:31:05;5.90;;;2.40;;
77775;SDS011;66965;43.328;6.668;2023-06-04T15:33:30;5.40;;;2.17;;
77775;SDS011;66965;43.328;6.668;2023-06-04T15:35:55;6.93;;;2.37;;
77775;SDS011;66965;43.328;6.668;2023-06-04T15:38:21;5.80;;;1.90;;
77775;SDS011;66965;43.328;6.668;2023-06-04T15:40:46;6.40;;;2.20;;
77775;SDS011;66965;43.328;6.668;2023-06-04T15:43:11;5.82;;;2.10;;
77775;SDS011;66965;43.328;6.668;2023-06-04T15:45:37;7.17;;;2.97;;
77775;SDS011;66965;43.328;6.668;2023-06-04T15:50:27;4.85;;;2.17;;
77775;SDS011;66965;43.328;6.668;2023-06-04T15:55:18;4.10;;;2.03;;
77775;SDS011;66965;43.328;6.668;2023-06-04T16:00:08;4.77;;;2.10;;
77775;SDS011;66965;43.328;6.668;2023-06-04T16:04:59;12.57;;;3.38;;
77775;SDS011;66965;43.328;6.668;2023-06-04T16:07:25;5.37;;;2.10;;
77775;SDS011;66965;43.328;6.668;2023-06-04T16:09:50;5.70;;;2.33;;
77775;SDS011;66965;43.328;6.668;2023-06-04T16:14:40;5.30;;;2.00;;
77775;SDS011;66965;43.328;6.668;2023-06-04T16:19:31;11.10;;;2.97;;
77775;SDS011;66965;43.328;6.668;2023-06-04T16:21:56;7.63;;;2.57;;
77775;SDS011;66965;43.328;6.668;2023-06-04T16:26:46;4.55;;;2.22;;
77775;SDS011;66965;43.328;6.668;2023-06-04T16:31:37;6.78;;;2.80;;
77775;SDS011;66965;43.328;6.668;2023-06-04T16:34:02;7.37;;;2.57;;
77775;SDS011;66965;43.328;6.668;2023-06-04T16:38:52;5.43;;;2.47;;
77775;SDS011;66965;43.328;6.668;2023-06-04T16:41:18;6.50;;;2.53;;
77775;SDS011;66965;43.328;6.668;2023-06-04T16:46:08;8.33;;;2.73;;
77775;SDS011;66965;43.328;6.668;2023-06-04T16:50:59;7.00;;;3.13;;
77775;SDS011;66965;43.328;6.668;2023-06-04T16:53:24;5.93;;;2.90;;
77775;SDS011;66965;43.328;6.668;2023-06-04T16:58:14;5.93;;;2.53;;
77775;SDS011;66965;43.328;6.668;2023-06-04T17:03:05;5.70;;;2.63;;